createdAt,value
2023-05-13T04:55:18.888Z,6.07
2023-05-13T05:00:22.975Z,5.40
2023-05-13T05:05:26.729Z,5.80
2023-05-13T05:10:31.547Z,5.68
2023-05-13T05:15:35.236Z,5.72
2023-05-13T05:20:39.144Z,5.43
2023-05-13T05:25:44.790Z,5.65
2023-05-13T05:30:48.509Z,5.38
2023-05-13T05:35:52.208Z,5.43
2023-05-13T05:40:57.043Z,4.97
2023-05-13T05:46:00.546Z,5.82
2023-05-13T05:51:04.346Z,5.30
2023-05-13T05:56:09.345Z,6.10
2023-05-13T06:01:13.144Z,5.22
2023-05-13T06:06:16.570Z,5.95
2023-05-13T06:11:21.692Z,5.50
2023-05-13T06:16:25.672Z,5.70
2023-05-13T06:21:29.244Z,6.00
2023-05-13T06:26:34.347Z,6.32
2023-05-13T06:31:38.158Z,6.47
2023-05-13T06:36:42.070Z,6.15
2023-05-13T06:41:47.030Z,5.40
2023-05-13T06:46:50.641Z,5.65
2023-05-13T06:51:54.103Z,5.68
2023-05-13T06:56:59.165Z,6.03
2023-05-13T07:02:02.693Z,5.85
2023-05-13T07:07:06.343Z,6.85
2023-05-13T07:12:11.406Z,5.68
2023-05-13T07:17:15.233Z,6.15
2023-05-13T07:22:18.857Z,6.05
2023-05-13T07:27:24.407Z,6.40
2023-05-13T07:32:27.917Z,6.10
2023-05-13T07:37:31.603Z,6.40
2023-05-13T07:42:36.501Z,6.18
2023-05-13T07:47:40.695Z,6.50
2023-05-13T07:52:48.987Z,6.30
2023-05-13T07:57:54.129Z,5.53
2023-05-13T08:02:57.616Z,6.15
2023-05-13T08:08:01.883Z,6.40
2023-05-13T08:13:06.640Z,6.32
2023-05-13T08:18:10.260Z,5.93
2023-05-13T08:23:13.793Z,5.18
2023-05-13T08:28:18.720Z,4.82
2023-05-13T08:33:22.276Z,5.03
2023-05-13T08:38:25.790Z,5.70
2023-05-13T08:43:33.226Z,4.80
2023-05-13T08:48:37.777Z,5.50
2023-05-13T08:53:41.565Z,4.88
2023-05-13T08:58:46.316Z,4.53
2023-05-13T09:03:56.461Z,4.32
2023-05-13T09:09:00.862Z,5.15
2023-05-13T09:14:07.304Z,4.05
2023-05-13T09:19:11.522Z,5.15
2023-05-13T09:24:18.876Z,4.45
2023-05-13T09:29:25.758Z,4.13
2023-05-13T09:34:31.380Z,4.78
2023-05-13T09:39:39.321Z,3.90
2023-05-13T09:44:45.410Z,3.60
2023-05-13T09:49:56.839Z,4.20
2023-05-13T09:55:00.675Z,4.28
2023-05-13T10:00:10.953Z,3.40
2023-05-13T10:05:19.513Z,3.33
2023-05-13T10:10:23.580Z,3.33
2023-05-13T10:15:28.976Z,2.97
2023-05-13T10:20:32.807Z,2.92
2023-05-13T10:25:36.495Z,3.42
2023-05-13T10:30:42.907Z,3.40
2023-05-13T10:35:57.902Z,3.10
2023-05-13T10:41:10.619Z,3.20
2023-05-13T10:46:15.535Z,2.90
2023-05-13T10:51:23.680Z,3.10
2023-05-13T10:56:29.360Z,3.25
2023-05-13T11:01:39.273Z,3.55
2023-05-13T11:06:44.545Z,3.97
2023-05-13T11:11:54.721Z,3.20
2023-05-13T11:17:12.116Z,3.47
2023-05-13T11:22:17.364Z,3.15
2023-05-13T11:27:22.107Z,3.22
2023-05-13T11:32:56.501Z,3.40
2023-05-13T11:38:02.451Z,3.85
2023-05-13T11:43:06.951Z,3.25
2023-05-13T11:48:22.178Z,4.32
2023-05-13T11:53:25.599Z,3.95
2023-05-13T11:58:29.052Z,4.47
2023-05-13T12:03:33.914Z,3.13
2023-05-13T12:08:45.426Z,3.28
2023-05-13T12:13:49.439Z,2.60
2023-05-13T12:19:00.740Z,2.90
2023-05-13T12:24:17.236Z,2.60
2023-05-13T12:29:20.956Z,2.70
2023-05-13T12:34:33.279Z,3.15
2023-05-13T12:39:36.770Z,2.60
2023-05-13T12:44:42.358Z,3.05
2023-05-13T12:50:06.350Z,3.17
2023-05-13T12:55:12.339Z,3.50
2023-05-13T13:00:16.626Z,2.97
2023-05-13T13:05:21.783Z,2.47
2023-05-13T13:10:25.459Z,2.65
2023-05-13T13:15:28.861Z,3.30
2023-05-13T13:20:34.497Z,3.78
2023-05-13T13:25:37.950Z,3.78
2023-05-13T13:30:46.372Z,3.40
2023-05-13T13:35:51.913Z,3.42
2023-05-13T13:40:55.337Z,4.57
2023-05-13T13:45:58.905Z,3.60
2023-05-13T13:51:03.817Z,2.75
2023-05-13T13:56:08.149Z,2.90
2023-05-13T14:01:12.045Z,3.47
2023-05-13T14:06:16.938Z,3.33
2023-05-13T14:11:20.842Z,2.92
2023-05-13T14:16:24.539Z,3.67
2023-05-13T14:21:29.450Z,2.55
2023-05-13T14:26:32.885Z,2.65
2023-05-13T14:31:36.539Z,2.17
2023-05-13T14:36:41.381Z,2.08
2023-05-13T14:41:46.287Z,2.20
2023-05-13T14:46:49.832Z,2.10
2023-05-13T14:51:54.838Z,2.22
2023-05-13T14:56:58.275Z,2.20
2023-05-13T15:02:02.244Z,1.60
2023-05-13T15:07:08.578Z,1.75
2023-05-13T15:12:11.983Z,1.92
2023-05-13T15:17:17.176Z,2.40
2023-05-13T15:22:22.300Z,2.10
2023-05-13T15:27:27.979Z,2.05
2023-05-13T15:32:31.399Z,2.00
2023-05-13T15:37:37.086Z,2.08
2023-05-13T15:42:41.261Z,2.67
2023-05-13T15:47:44.709Z,2.53
2023-05-13T15:52:49.565Z,2.60
2023-05-13T15:57:53.013Z,2.58
2023-05-13T16:02:56.725Z,2.80
2023-05-13T16:08:01.556Z,3.20
2023-05-13T16:13:05.081Z,3.00
2023-05-13T16:18:08.665Z,3.05
2023-05-13T16:23:13.754Z,2.67
2023-05-13T16:28:17.210Z,2.50
2023-05-13T16:33:20.886Z,3.13
2023-05-13T16:38:26.345Z,4.05
2023-05-13T16:43:29.798Z,2.63
2023-05-13T16:48:33.636Z,3.35
2023-05-13T16:53:38.457Z,4.53
2023-05-13T16:58:41.955Z,6.65
2023-05-13T17:03:45.716Z,4.55
2023-05-13T17:08:50.732Z,3.55
2023-05-13T17:13:54.167Z,4.13
2023-05-13T17:18:59.188Z,4.82
2023-05-13T17:24:05.021Z,3.75
2023-05-13T17:29:08.440Z,4.25
2023-05-13T17:34:12.220Z,3.70
2023-05-13T17:39:17.385Z,3.20
2023-05-13T17:44:21.138Z,3.28
2023-05-13T17:49:24.629Z,3.88
2023-05-13T17:54:29.370Z,3.60
2023-05-13T17:59:32.782Z,4.05
2023-05-13T18:04:36.263Z,4.10
2023-05-13T18:09:41.056Z,4.82
2023-05-13T18:14:44.491Z,4.90
2023-05-13T18:19:48.250Z,4.75
2023-05-13T18:24:53.286Z,5.90
2023-05-13T18:29:56.784Z,5.93
2023-05-13T18:35:00.696Z,7.95
2023-05-13T18:40:06.978Z,6.65
2023-05-13T18:45:11.428Z,7.55
2023-05-13T18:50:14.849Z,6.90
2023-05-13T18:55:20.100Z,6.75
2023-05-13T19:00:23.929Z,6.32
2023-05-13T19:05:28.321Z,6.40
2023-05-13T19:10:39.064Z,5.47
2023-05-13T19:15:43.022Z,5.25
2023-05-13T19:20:47.284Z,5.93
2023-05-13T19:25:52.344Z,6.32
2023-05-13T19:30:56.538Z,6.38
2023-05-13T19:36:00.223Z,6.63
2023-05-13T19:41:05.029Z,7.20
2023-05-13T19:46:08.824Z,6.60
2023-05-13T19:51:12.424Z,7.88
2023-05-13T19:56:17.220Z,8.65
2023-05-13T20:01:20.731Z,8.57
2023-05-13T20:06:24.169Z,7.88
2023-05-13T20:11:29.112Z,8.98
2023-05-13T20:16:32.905Z,9.20
2023-05-13T20:21:36.379Z,9.68
2023-05-13T20:26:41.176Z,9.93
2023-05-13T20:31:44.697Z,9.70
2023-05-13T20:36:48.203Z,10.65
2023-05-13T20:41:53.039Z,9.20
2023-05-13T20:46:56.552Z,10.30
2023-05-13T20:52:03.329Z,9.30
2023-05-13T20:57:08.405Z,9.35
2023-05-13T21:02:12.158Z,9.25
2023-05-13T21:07:15.713Z,9.13
2023-05-13T21:12:20.491Z,8.70
2023-05-13T21:17:24.697Z,9.73
2023-05-13T21:22:28.173Z,9.38
2023-05-13T21:27:33.116Z,9.60
2023-05-13T21:32:36.537Z,11.82
2023-05-13T21:37:40.813Z,10.85
2023-05-13T21:42:45.868Z,9.60
2023-05-13T21:47:49.794Z,8.93
2023-05-13T21:52:53.518Z,9.57
2023-05-13T21:57:58.304Z,8.55
2023-05-13T22:03:02.132Z,9.48
2023-05-13T22:08:06.094Z,9.05
2023-05-13T22:13:10.864Z,8.70
2023-05-13T22:18:15.257Z,9.60
2023-05-13T22:23:18.726Z,9.10
2023-05-13T22:28:23.570Z,9.07
